Ag Nektarios Aiginas — SX7083 — position and weather

sailwx.info

Track history (hours):
 
Tides and Currents Weather Stations Pressure Air Temp Water Temp Dewpoint Dewpoint Depression Visibility Wind Speed Wind Dir Waves Ship Positions

Ag Nektarios Aiginas

Last reported at 2016-Jul-25 16:34 UTC. Time now 2016-Jul-26 04:34 UTC.
Position N 37°56' E 023°36'.

Length 75 m; draft 2.7 m.

Type: Passenger vessel. MMSI: 237021400.

Date/timePositionNaut miles runAvg speedWind from/ knotsBaromVisibWave heightAir tempDewpointWater temp
2016-Jul-25 16:34N 37°56' E 023°36'1312.6
2016-Jul-25 15:33N 37°47' E 023°25'1 0.9
2016-Jul-25 14:33N 37°47' E 023°26'1312.9
2016-Jul-25 13:34N 37°56' E 023°37'0 0.3
2016-Jul-25 12:34N 37°56' E 023°37'1312.7
2016-Jul-25 11:34N 37°47' E 023°26'1 1.2
2016-Jul-25 10:33N 37°46' E 023°25'1312.9
2016-Jul-25 09:34N 37°55' E 023°36'2 2.1
2016-Jul-25 08:34N 37°57' E 023°38'1312.7
2016-Jul-25 07:33N 37°47' E 023°27'2 1.9
2016-Jul-25 06:34N 37°46' E 023°25'1312.8
2016-Jul-25 05:34N 37°55' E 023°36'2 0.2
2016-Jul-24 19:33N 37°57' E 023°38'1312.8
2016-Jul-24 18:33N 37°47' E 023°27'3 3.0
2016-Jul-24 17:33N 37°45' E 023°25'1212.3
2016-Jul-24 16:33N 37°54' E 023°35'0 0.4
2016-Jul-24 15:34N 37°54' E 023°35'1211.5
2016-Jul-24 14:33N 37°45' E 023°25'3 3.2
2016-Jul-24 13:33N 37°48' E 023°27'1212.4
2016-Jul-24 12:33N 37°57' E 023°38'3 3.4
2016-Jul-24 11:33N 37°54' E 023°35'1212.1
2016-Jul-24 10:33N 37°45' E 023°25'3 3.3
2016-Jul-24 09:33N 37°48' E 023°28'1212.5
2016-Jul-24 08:33N 37°57' E 023°38'0 0.1
2016-Jul-24 07:33N 37°57' E 023°39'0 0.0
2016-Jul-23 17:19N 37°57' E 023°38'0 0.5
2016-Jul-23 16:34N 37°56' E 023°38'1313.2
2016-Jul-23 15:34N 37°47' E 023°26'2 1.6
2016-Jul-23 14:33N 37°46' E 023°25'1312.7
2016-Jul-23 13:33N 37°55' E 023°36'2 2.2
2016-Jul-23 12:33N 37°56' E 023°38'1313.1
2016-Jul-23 11:33N 37°47' E 023°26'2 1.7
2016-Jul-23 10:33N 37°46' E 023°25'1312.7
2016-Jul-23 09:33N 37°55' E 023°36'2 2.3
2016-Jul-23 08:33N 37°56' E 023°38'1312.8
2016-Jul-23 07:33N 37°47' E 023°27'0 0.5
2016-Jul-23 06:33N 37°47' E 023°26'14 6.9
2016-Jul-23 04:34N 37°57' E 023°39'0 0.0
2016-Jul-22 19:33N 37°57' E 023°39'1010.0
2016-Jul-22 18:33N 37°49' E 023°30'5 5.4
2016-Jul-22 17:33N 37°46' E 023°25'1312.8
2016-Jul-22 16:33N 37°55' E 023°36'1 1.0
2016-Jul-22 15:34N 37°54' E 023°35'1212.3
2016-Jul-22 14:33N 37°45' E 023°25'4 4.1
2016-Jul-22 13:33N 37°48' E 023°28'1211.8
2016-Jul-22 12:33N 37°57' E 023°38'5 4.5
2016-Jul-22 11:33N 37°53' E 023°35'1111.1
2016-Jul-22 10:33N 37°45' E 023°26'4 3.6
2016-Jul-22 09:33N 37°48' E 023°28'1212.2
2016-Jul-22 08:33N 37°57' E 023°38'0 0.0
2016-Jul-22 07:33N 37°57' E 023°38'1 0.1
2016-Jul-21 16:33N 37°56' E 023°37'1313.1
2016-Jul-21 15:33N 37°46' E 023°25'1 1.4
2016-Jul-21 14:33N 37°45' E 023°25'1312.6
2016-Jul-21 13:34N 37°54' E 023°36'2 2.4
2016-Jul-21 12:33N 37°56' E 023°37'1312.8
2016-Jul-21 11:34N 37°47' E 023°26'2 2.1
2016-Jul-21 10:33N 37°45' E 023°25'1312.8
2016-Jul-21 09:33N 37°55' E 023°36'3 3.0
2016-Jul-21 08:33N 37°57' E 023°38'1111.1
2016-Jul-21 07:34N 37°49' E 023°29'3 3.5
2016-Jul-21 06:33N 37°46' E 023°25'1312.8
2016-Jul-21 05:33N 37°56' E 023°37'2 1.8
2016-Jul-21 04:33N 37°57' E 023°38'2 0.2
2016-Jul-20 16:33N 37°55' E 023°36'1312.5
2016-Jul-20 15:34N 37°46' E 023°25'1 1.3
2016-Jul-20 14:33N 37°45' E 023°25'1312.7
2016-Jul-20 13:33N 37°54' E 023°36'2 1.5
2016-Jul-20 12:33N 37°56' E 023°36'1312.5
2016-Jul-20 11:33N 37°47' E 023°26'1 1.5
2016-Jul-20 10:34N 37°45' E 023°25'1312.8
2016-Jul-20 09:34N 37°55' E 023°36'3 2.6
2016-Jul-20 08:34N 37°57' E 023°38'1111.3
2016-Jul-20 07:33N 37°48' E 023°28'3 3.4
2016-Jul-20 06:34N 37°46' E 023°25'1312.9
2016-Jul-20 05:33N 37°55' E 023°37'2 2.0
2016-Jul-20 04:33N 37°57' E 023°39'2 0.1
2016-Jul-19 16:33N 37°56' E 023°37'1312.6
2016-Jul-19 15:33N 37°47' E 023°26'1 1.5
2016-Jul-19 14:33N 37°45' E 023°25'1312.7
2016-Jul-19 13:33N 37°55' E 023°36'1 1.4
2016-Jul-19 12:33N 37°56' E 023°37'1312.5
2016-Jul-19 11:33N 37°47' E 023°26'1 1.5
2016-Jul-19 10:33N 37°46' E 023°25'1312.8
2016-Jul-19 09:33N 37°55' E 023°36'2 1.9
2016-Jul-19 08:33N 37°56' E 023°37'1212.2
2016-Jul-19 07:33N 37°47' E 023°27'13 4.4
2016-Jul-19 04:33N 37°57' E 023°38'0 0.0
2016-Jul-18 16:33N 37°57' E 023°38'0 0.0
2016-Jul-18 15:33N 37°57' E 023°38'0 0.0
2016-Jul-18 14:33N 37°57' E 023°38'0 0.0
2016-Jul-18 13:33N 37°57' E 023°38'4 4.3
2016-Jul-18 12:33N 37°53' E 023°35'1010.5
2016-Jul-18 11:33N 37°46' E 023°25'1 0.7
2016-Jul-18 10:33N 37°46' E 023°25'1212.5
2016-Jul-18 09:33N 37°54' E 023°36'2 1.8
2016-Jul-18 08:33N 37°56' E 023°37'1312.9
2016-Jul-18 07:33N 37°47' E 023°26'0 0.5
2016-Jul-18 06:33N 37°47' E 023°26'1312.5
2016-Jul-18 05:33N 37°56' E 023°37'1 0.1
2016-Jul-17 20:12N 37°57' E 023°39'6 9.0
2016-Jul-17 19:33N 37°52' E 023°34'10 9.8
2016-Jul-17 18:33N 37°45' E 023°25'3 3.2
2016-Jul-17 17:33N 37°47' E 023°28'1212.3
2016-Jul-17 16:33N 37°56' E 023°38'5 5.2
2016-Jul-17 15:33N 37°52' E 023°34'10 9.6
2016-Jul-17 14:29N 37°45' E 023°26'4 4.2
2016-Jul-17 13:33N 37°48' E 023°28'1211.9
2016-Jul-17 12:33N 37°57' E 023°38'4 4.0
2016-Jul-17 11:33N 37°54' E 023°35'1211.7
2016-Jul-17 10:33N 37°45' E 023°25'7 6.6
2016-Jul-17 09:33N 37°50' E 023°31'9 9.2
2016-Jul-17 08:33N 37°57' E 023°39'0 0.0
2016-Jul-17 07:33N 37°57' E 023°39'0 0.0
2016-Jul-16 17:05N 37°57' E 023°39'2 3.6
2016-Jul-16 16:33N 37°56' E 023°37'1312.8
2016-Jul-16 15:34N 37°47' E 023°25'1 0.9
2016-Jul-16 14:33N 37°46' E 023°25'1312.8
2016-Jul-16 13:33N 37°55' E 023°36'0 0.1
2016-Jul-16 12:33N 37°55' E 023°36'1312.8
2016-Jul-16 11:33N 37°46' E 023°25'1 1.2
2016-Jul-16 10:32N 37°47' E 023°26'1212.6
2016-Jul-16 09:33N 37°56' E 023°36'1 1.0
2016-Jul-16 08:33N 37°55' E 023°36'1312.7
2016-Jul-16 07:34N 37°46' E 023°25'3 2.9
2016-Jul-16 06:34N 37°48' E 023°28'12 6.2
2016-Jul-16 04:34N 37°57' E 023°39'0 0.0
2016-Jul-15 19:33N 37°57' E 023°38'1110.9
2016-Jul-15 18:33N 37°49' E 023°29'2 1.6
2016-Jul-15 17:33N 37°48' E 023°27'  
Track history (hours):
 
Tides and Currents Weather Stations Pressure Air Temp Water Temp Dewpoint Dewpoint Depression Visibility Wind Speed Wind Dir Waves Ship Positions

Ag Nektarios Aiginas

Last reported at 2016-Jul-25 16:34 UTC. Time now 2016-Jul-26 04:34 UTC.
Position N 37°56' E 023°36'.

Length 75 m; draft 2.7 m.

Type: Passenger vessel. MMSI: 237021400.

Date/timePositionNaut miles runAvg speedWind from/ knotsBaromVisibWave heightAir tempDewpointWater temp
2016-Jul-25 16:34N 37°56' E 023°36'1312.6
2016-Jul-25 15:33N 37°47' E 023°25'1 0.9
2016-Jul-25 14:33N 37°47' E 023°26'1312.9
2016-Jul-25 13:34N 37°56' E 023°37'0 0.3
2016-Jul-25 12:34N 37°56' E 023°37'1312.7
2016-Jul-25 11:34N 37°47' E 023°26'1 1.2
2016-Jul-25 10:33N 37°46' E 023°25'1312.9
2016-Jul-25 09:34N 37°55' E 023°36'2 2.1
2016-Jul-25 08:34N 37°57' E 023°38'1312.7
2016-Jul-25 07:33N 37°47' E 023°27'2 1.9
2016-Jul-25 06:34N 37°46' E 023°25'1312.8
2016-Jul-25 05:34N 37°55' E 023°36'2 0.2
2016-Jul-24 19:33N 37°57' E 023°38'1312.8
2016-Jul-24 18:33N 37°47' E 023°27'3 3.0
2016-Jul-24 17:33N 37°45' E 023°25'1212.3
2016-Jul-24 16:33N 37°54' E 023°35'0 0.4
2016-Jul-24 15:34N 37°54' E 023°35'1211.5
2016-Jul-24 14:33N 37°45' E 023°25'3 3.2
2016-Jul-24 13:33N 37°48' E 023°27'1212.4
2016-Jul-24 12:33N 37°57' E 023°38'3 3.4
2016-Jul-24 11:33N 37°54' E 023°35'1212.1
2016-Jul-24 10:33N 37°45' E 023°25'3 3.3
2016-Jul-24 09:33N 37°48' E 023°28'1212.5
2016-Jul-24 08:33N 37°57' E 023°38'0 0.1
2016-Jul-24 07:33N 37°57' E 023°39'0 0.0
2016-Jul-23 17:19N 37°57' E 023°38'0 0.5
2016-Jul-23 16:34N 37°56' E 023°38'1313.2
2016-Jul-23 15:34N 37°47' E 023°26'2 1.6
2016-Jul-23 14:33N 37°46' E 023°25'1312.7
2016-Jul-23 13:33N 37°55' E 023°36'2 2.2
2016-Jul-23 12:33N 37°56' E 023°38'1313.1
2016-Jul-23 11:33N 37°47' E 023°26'2 1.7
2016-Jul-23 10:33N 37°46' E 023°25'1312.7
2016-Jul-23 09:33N 37°55' E 023°36'2 2.3
2016-Jul-23 08:33N 37°56' E 023°38'1312.8
2016-Jul-23 07:33N 37°47' E 023°27'0 0.5
2016-Jul-23 06:33N 37°47' E 023°26'14 6.9
2016-Jul-23 04:34N 37°57' E 023°39'0 0.0
2016-Jul-22 19:33N 37°57' E 023°39'1010.0
2016-Jul-22 18:33N 37°49' E 023°30'5 5.4
2016-Jul-22 17:33N 37°46' E 023°25'1312.8
2016-Jul-22 16:33N 37°55' E 023°36'1 1.0
2016-Jul-22 15:34N 37°54' E 023°35'1212.3
2016-Jul-22 14:33N 37°45' E 023°25'4 4.1
2016-Jul-22 13:33N 37°48' E 023°28'1211.8
2016-Jul-22 12:33N 37°57' E 023°38'5 4.5
2016-Jul-22 11:33N 37°53' E 023°35'1111.1
2016-Jul-22 10:33N 37°45' E 023°26'4 3.6
2016-Jul-22 09:33N 37°48' E 023°28'1212.2
2016-Jul-22 08:33N 37°57' E 023°38'0 0.0
2016-Jul-22 07:33N 37°57' E 023°38'1 0.1
2016-Jul-21 16:33N 37°56' E 023°37'1313.1
2016-Jul-21 15:33N 37°46' E 023°25'1 1.4
2016-Jul-21 14:33N 37°45' E 023°25'1312.6
2016-Jul-21 13:34N 37°54' E 023°36'2 2.4
2016-Jul-21 12:33N 37°56' E 023°37'1312.8
2016-Jul-21 11:34N 37°47' E 023°26'2 2.1
2016-Jul-21 10:33N 37°45' E 023°25'1312.8
2016-Jul-21 09:33N 37°55' E 023°36'3 3.0
2016-Jul-21 08:33N 37°57' E 023°38'1111.1
2016-Jul-21 07:34N 37°49' E 023°29'3 3.5
2016-Jul-21 06:33N 37°46' E 023°25'1312.8
2016-Jul-21 05:33N 37°56' E 023°37'2 1.8
2016-Jul-21 04:33N 37°57' E 023°38'2 0.2
2016-Jul-20 16:33N 37°55' E 023°36'1312.5
2016-Jul-20 15:34N 37°46' E 023°25'1 1.3
2016-Jul-20 14:33N 37°45' E 023°25'1312.7
2016-Jul-20 13:33N 37°54' E 023°36'2 1.5
2016-Jul-20 12:33N 37°56' E 023°36'1312.5
2016-Jul-20 11:33N 37°47' E 023°26'1 1.5
2016-Jul-20 10:34N 37°45' E 023°25'1312.8
2016-Jul-20 09:34N 37°55' E 023°36'3 2.6
2016-Jul-20 08:34N 37°57' E 023°38'1111.3
2016-Jul-20 07:33N 37°48' E 023°28'3 3.4
2016-Jul-20 06:34N 37°46' E 023°25'1312.9
2016-Jul-20 05:33N 37°55' E 023°37'2 2.0
2016-Jul-20 04:33N 37°57' E 023°39'2 0.1
2016-Jul-19 16:33N 37°56' E 023°37'1312.6
2016-Jul-19 15:33N 37°47' E 023°26'1 1.5
2016-Jul-19 14:33N 37°45' E 023°25'1312.7
2016-Jul-19 13:33N 37°55' E 023°36'1 1.4
2016-Jul-19 12:33N 37°56' E 023°37'1312.5
2016-Jul-19 11:33N 37°47' E 023°26'1 1.5
2016-Jul-19 10:33N 37°46' E 023°25'1312.8
2016-Jul-19 09:33N 37°55' E 023°36'2 1.9
2016-Jul-19 08:33N 37°56' E 023°37'1212.2
2016-Jul-19 07:33N 37°47' E 023°27'13 4.4
2016-Jul-19 04:33N 37°57' E 023°38'0 0.0
2016-Jul-18 16:33N 37°57' E 023°38'0 0.0
2016-Jul-18 15:33N 37°57' E 023°38'0 0.0
2016-Jul-18 14:33N 37°57' E 023°38'0 0.0
2016-Jul-18 13:33N 37°57' E 023°38'4 4.3
2016-Jul-18 12:33N 37°53' E 023°35'1010.5
2016-Jul-18 11:33N 37°46' E 023°25'1 0.7
2016-Jul-18 10:33N 37°46' E 023°25'1212.5
2016-Jul-18 09:33N 37°54' E 023°36'2 1.8
2016-Jul-18 08:33N 37°56' E 023°37'1312.9
2016-Jul-18 07:33N 37°47' E 023°26'0 0.5
2016-Jul-18 06:33N 37°47' E 023°26'1312.5
2016-Jul-18 05:33N 37°56' E 023°37'1 0.1
2016-Jul-17 20:12N 37°57' E 023°39'6 9.0
2016-Jul-17 19:33N 37°52' E 023°34'10 9.8
2016-Jul-17 18:33N 37°45' E 023°25'3 3.2
2016-Jul-17 17:33N 37°47' E 023°28'1212.3
2016-Jul-17 16:33N 37°56' E 023°38'5 5.2
2016-Jul-17 15:33N 37°52' E 023°34'10 9.6
2016-Jul-17 14:29N 37°45' E 023°26'4 4.2
2016-Jul-17 13:33N 37°48' E 023°28'1211.9
2016-Jul-17 12:33N 37°57' E 023°38'4 4.0
2016-Jul-17 11:33N 37°54' E 023°35'1211.7
2016-Jul-17 10:33N 37°45' E 023°25'7 6.6
2016-Jul-17 09:33N 37°50' E 023°31'9 9.2
2016-Jul-17 08:33N 37°57' E 023°39'0 0.0
2016-Jul-17 07:33N 37°57' E 023°39'0 0.0
2016-Jul-16 17:05N 37°57' E 023°39'2 3.6
2016-Jul-16 16:33N 37°56' E 023°37'1312.8
2016-Jul-16 15:34N 37°47' E 023°25'1 0.9
2016-Jul-16 14:33N 37°46' E 023°25'1312.8
2016-Jul-16 13:33N 37°55' E 023°36'0 0.1
2016-Jul-16 12:33N 37°55' E 023°36'1312.8
2016-Jul-16 11:33N 37°46' E 023°25'1 1.2
2016-Jul-16 10:32N 37°47' E 023°26'1212.6
2016-Jul-16 09:33N 37°56' E 023°36'1 1.0
2016-Jul-16 08:33N 37°55' E 023°36'1312.7
2016-Jul-16 07:34N 37°46' E 023°25'3 2.9
2016-Jul-16 06:34N 37°48' E 023°28'12 6.2
2016-Jul-16 04:34N 37°57' E 023°39'0 0.0
2016-Jul-15 19:33N 37°57' E 023°38'1110.9
2016-Jul-15 18:33N 37°49' E 023°29'2 1.6
2016-Jul-15 17:33N 37°48' E 023°27'  

Dump ship's entire track history